createdAt,value
2019-02-28T00:01:32.506Z,2.29
2019-02-28T00:04:00.620Z,2.24
2019-02-28T00:06:28.620Z,2.25
2019-02-28T00:08:56.639Z,2.21
2019-02-28T00:11:24.632Z,2.18
2019-02-28T00:13:55.974Z,2.16
2019-02-28T00:16:22.699Z,2.14
2019-02-28T00:18:50.785Z,2.11
2019-02-28T00:21:18.697Z,2.11
2019-02-28T00:23:46.811Z,2.09
2019-02-28T00:26:14.564Z,2.05
2019-02-28T00:28:42.447Z,1.99
2019-02-28T00:31:14.215Z,1.97
2019-02-28T00:33:40.468Z,1.98
2019-02-28T00:36:08.392Z,1.92
2019-02-28T00:38:36.485Z,1.90
2019-02-28T00:41:04.735Z,1.89
2019-02-28T00:43:32.714Z,1.86
2019-02-28T00:46:00.600Z,1.85
2019-02-28T00:48:28.662Z,1.79
2019-02-28T00:50:58.546Z,1.66
2019-02-28T00:53:26.675Z,1.57
2019-02-28T00:55:54.809Z,1.52
2019-02-28T00:58:22.918Z,1.54
2019-02-28T01:00:50.853Z,1.68
2019-02-28T01:03:19.897Z,1.68
2019-02-28T01:05:47.763Z,1.79
2019-02-28T01:08:16.021Z,1.66
2019-02-28T01:10:44.290Z,1.67
2019-02-28T01:13:14.005Z,1.62
2019-02-28T01:15:45.088Z,1.53
2019-02-28T01:18:11.689Z,1.55
2019-02-28T01:20:39.746Z,1.53
2019-02-28T01:23:07.616Z,1.55
2019-02-28T01:25:37.203Z,1.55
2019-02-28T01:28:05.426Z,1.55
2019-02-28T01:30:33.338Z,1.51
2019-02-28T01:33:01.321Z,1.35
2019-02-28T01:35:29.137Z,1.46
2019-02-28T01:37:56.948Z,1.49
2019-02-28T01:40:24.678Z,1.47
2019-02-28T01:42:54.839Z,1.49
2019-02-28T01:45:22.458Z,1.51
2019-02-28T01:47:51.907Z,1.47
2019-02-28T01:50:20.515Z,1.41
2019-02-28T01:52:49.511Z,1.35
2019-02-28T01:55:17.457Z,1.34
2019-02-28T01:57:45.491Z,1.32
2019-02-28T02:00:14.018Z,1.27
2019-02-28T02:02:41.787Z,1.26
2019-02-28T02:05:09.774Z,1.24
2019-02-28T02:07:37.614Z,1.21
2019-02-28T02:10:11.167Z,1.19
2019-02-28T02:12:39.018Z,1.19
2019-02-28T02:15:07.809Z,1.12
2019-02-28T02:17:36.242Z,1.11
2019-02-28T02:20:04.511Z,1.05
2019-02-28T02:22:32.323Z,1.05
2019-02-28T02:25:02.947Z,1.03
2019-02-28T02:27:30.808Z,0.99
2019-02-28T02:29:58.852Z,0.96
2019-02-28T02:32:26.863Z,0.88
2019-02-28T02:34:54.924Z,0.92
2019-02-28T02:37:26.393Z,0.88
2019-02-28T02:39:52.766Z,0.83
2019-02-28T02:42:20.702Z,0.84
2019-02-28T02:44:48.629Z,0.83
2019-02-28T02:47:16.715Z,0.80
2019-02-28T02:49:44.625Z,0.78
2019-02-28T02:52:12.383Z,0.75
2019-02-28T02:54:40.331Z,0.80
2019-02-28T02:57:08.318Z,0.83
2019-02-28T02:59:38.947Z,0.71
2019-02-28T03:02:06.249Z,0.68
2019-02-28T03:04:34.223Z,0.66
2019-02-28T03:07:02.199Z,0.66
2019-02-28T03:09:30.317Z,0.67
2019-02-28T03:11:58.841Z,0.72
2019-02-28T03:14:26.765Z,0.69
2019-02-28T03:16:54.656Z,0.66
2019-02-28T03:19:22.609Z,0.64
2019-02-28T03:21:52.613Z,0.48
2019-02-28T03:24:20.505Z,0.56
2019-02-28T03:26:48.352Z,0.53
2019-02-28T03:29:16.225Z,0.53
2019-02-28T03:31:55.073Z,0.53
2019-02-28T03:34:14.372Z,0.53
2019-02-28T03:36:42.566Z,0.51
2019-02-28T03:39:10.776Z,0.47
2019-02-28T03:41:38.531Z,0.46
2019-02-28T03:44:07.585Z,0.45
2019-02-28T03:46:35.656Z,0.41
2019-02-28T03:49:11.170Z,0.42
2019-02-28T03:51:33.591Z,0.37
2019-02-28T03:54:01.458Z,0.33
2019-02-28T03:56:29.433Z,0.28
2019-02-28T03:58:57.628Z,0.26
2019-02-28T04:01:25.584Z,0.26
2019-02-28T04:03:53.636Z,0.20
2019-02-28T04:06:21.525Z,0.17
2019-02-28T04:08:49.774Z,0.20
2019-02-28T04:11:17.816Z,0.19
2019-02-28T04:13:45.753Z,0.17
2019-02-28T04:16:14.937Z,0.13
2019-02-28T04:18:46.102Z,0.14
2019-02-28T04:21:12.731Z,0.15
2019-02-28T04:23:40.665Z,0.10
2019-02-28T04:26:08.545Z,0.06
2019-02-28T04:28:36.720Z,0.08
2019-02-28T04:31:04.990Z,0.11
2019-02-28T04:33:37.358Z,0.10
2019-02-28T04:36:02.901Z,0.11
2019-02-28T04:38:30.840Z,0.14
2019-02-28T04:40:59.130Z,0.08
2019-02-28T04:43:28.080Z,0.10
2019-02-28T04:45:57.665Z,0.15
2019-02-28T04:48:26.056Z,0.13
2019-02-28T04:50:54.043Z,0.10
2019-02-28T04:53:22.067Z,0.07
2019-02-28T04:55:50.108Z,0.01
2019-02-28T04:58:18.207Z,-0.03
2019-02-28T05:00:46.219Z,-0.04
2019-02-28T05:03:14.260Z,-0.12
2019-02-28T05:05:46.499Z,-0.07
2019-02-28T05:08:12.105Z,-0.13
2019-02-28T05:10:39.988Z,-0.12
2019-02-28T05:13:07.860Z,-0.10
2019-02-28T05:15:38.500Z,-0.11
2019-02-28T05:18:06.030Z,-0.13
2019-02-28T05:20:35.140Z,-0.11
2019-02-28T05:23:03.266Z,-0.15
2019-02-28T05:25:31.309Z,-0.14
2019-02-28T05:27:59.555Z,-0.33
2019-02-28T05:30:27.455Z,-0.23
2019-02-28T05:32:55.414Z,-0.21
2019-02-28T05:35:30.432Z,-0.21
2019-02-28T05:37:58.617Z,-0.21
2019-02-28T05:40:26.670Z,-0.21
2019-02-28T05:42:58.517Z,-0.20
2019-02-28T05:45:24.503Z,-0.21
2019-02-28T05:47:52.505Z,-0.16
2019-02-28T05:50:20.532Z,-0.20
2019-02-28T05:52:48.587Z,-0.19
2019-02-28T05:55:16.642Z,-0.15
2019-02-28T05:57:45.018Z,-0.15
2019-02-28T06:00:14.427Z,-0.16
2019-02-28T06:02:42.569Z,-0.10
2019-02-28T06:05:11.954Z,-0.08
2019-02-28T06:07:40.552Z,-0.03
2019-02-28T06:10:08.653Z,0.11
2019-02-28T06:12:36.602Z,0.20
2019-02-28T06:15:05.885Z,0.33
2019-02-28T06:17:33.812Z,0.46
2019-02-28T06:20:01.848Z,0.58
2019-02-28T06:22:31.082Z,0.74
2019-02-28T06:24:59.710Z,0.96
2019-02-28T06:27:27.563Z,1.11
2019-02-28T06:29:55.443Z,1.29
2019-02-28T06:32:24.741Z,1.48
2019-02-28T06:34:52.825Z,1.69
2019-02-28T06:37:20.643Z,1.95
2019-02-28T06:39:48.457Z,2.10
2019-02-28T06:42:16.373Z,2.39
2019-02-28T06:44:44.205Z,2.70
2019-02-28T06:47:14.196Z,2.96
2019-02-28T06:49:42.145Z,3.21
2019-02-28T06:52:10.183Z,3.53
2019-02-28T06:54:39.942Z,3.85
2019-02-28T06:57:07.996Z,4.19
2019-02-28T06:59:36.187Z,4.56
2019-02-28T07:02:05.941Z,4.94
2019-02-28T07:04:33.822Z,5.31
2019-02-28T07:07:01.902Z,5.62
2019-02-28T07:09:30.526Z,5.94
2019-02-28T07:11:58.631Z,6.19
2019-02-28T07:14:26.993Z,6.52
2019-02-28T07:16:54.789Z,6.76
2019-02-28T07:19:26.287Z,7.05
2019-02-28T07:21:52.515Z,7.27
2019-02-28T07:24:20.489Z,7.57
2019-02-28T07:26:52.263Z,8.02
2019-02-28T07:29:18.609Z,8.07
2019-02-28T07:31:46.733Z,8.46
2019-02-28T07:34:19.691Z,8.79
2019-02-28T07:36:45.750Z,9.04
2019-02-28T07:39:13.965Z,9.32
2019-02-28T07:41:42.116Z,9.57
2019-02-28T07:44:10.028Z,9.81
2019-02-28T07:46:38.826Z,9.98
2019-02-28T07:49:09.649Z,10.19
2019-02-28T07:51:37.916Z,10.35
2019-02-28T07:54:05.983Z,10.56
2019-02-28T07:56:34.183Z,10.84
2019-02-28T07:59:05.346Z,11.02
2019-02-28T08:01:36.073Z,11.24
2019-02-28T08:04:04.109Z,11.51
2019-02-28T08:06:32.211Z,11.66
2019-02-28T08:09:01.778Z,11.77
2019-02-28T08:11:32.042Z,11.85
2019-02-28T08:13:59.886Z,12.07
2019-02-28T08:16:30.612Z,12.27
2019-02-28T08:18:57.765Z,12.49
2019-02-28T08:21:25.912Z,12.56
2019-02-28T08:23:53.709Z,12.70
2019-02-28T08:26:21.848Z,12.99
2019-02-28T08:28:49.851Z,13.32
2019-02-28T08:31:17.747Z,13.58
2019-02-28T08:33:48.181Z,13.76
2019-02-28T08:36:15.652Z,13.96
2019-02-28T08:38:43.810Z,14.36
2019-02-28T08:41:11.784Z,14.60
2019-02-28T08:43:39.641Z,14.74
2019-02-28T08:46:11.113Z,14.90
2019-02-28T08:48:37.229Z,15.03
2019-02-28T08:51:05.460Z,15.04
2019-02-28T08:53:33.456Z,15.09
2019-02-28T08:56:01.424Z,15.32
2019-02-28T08:58:29.380Z,15.48
2019-02-28T09:00:57.377Z,15.52
2019-02-28T09:03:27.396Z,15.68
2019-02-28T09:05:55.517Z,15.93
2019-02-28T09:08:25.320Z,15.95
2019-02-28T09:10:53.495Z,16.04
2019-02-28T09:13:21.412Z,16.11
2019-02-28T09:15:50.640Z,16.32
2019-02-28T09:18:18.917Z,16.48
2019-02-28T09:20:46.987Z,16.51
2019-02-28T09:23:14.924Z,16.42
2019-02-28T09:25:43.027Z,16.46
2019-02-28T09:28:13.150Z,16.63
2019-02-28T09:30:40.789Z,16.84
2019-02-28T09:33:08.650Z,17.08
2019-02-28T09:35:36.744Z,17.28
2019-02-28T09:38:08.030Z,17.57
2019-02-28T09:40:34.420Z,17.70
2019-02-28T09:43:02.216Z,17.81
2019-02-28T09:45:30.462Z,17.92
2019-02-28T09:48:01.837Z,17.99
2019-02-28T09:50:28.292Z,18.17
2019-02-28T09:52:56.328Z,18.35
2019-02-28T09:55:24.530Z,18.36
2019-02-28T09:57:54.817Z,18.31
2019-02-28T10:00:22.609Z,18.42
2019-02-28T10:02:50.680Z,18.82
2019-02-28T10:05:18.703Z,19.13
2019-02-28T10:07:46.875Z,19.43
2019-02-28T10:10:17.474Z,19.70
2019-02-28T10:12:46.648Z,19.84
2019-02-28T10:15:16.261Z,19.97
2019-02-28T10:17:44.230Z,20.02
2019-02-28T10:20:16.358Z,20.27
2019-02-28T10:22:47.325Z,20.35
2019-02-28T10:25:14.977Z,20.30
2019-02-28T10:27:43.092Z,20.35
2019-02-28T10:30:15.949Z,20.52
2019-02-28T10:32:44.106Z,20.77
2019-02-28T10:35:13.096Z,20.87
2019-02-28T10:37:40.988Z,20.98
2019-02-28T10:40:10.788Z,20.97
2019-02-28T10:42:41.250Z,21.25
2019-02-28T10:45:09.783Z,21.44
2019-02-28T10:47:37.810Z,21.56
2019-02-28T10:50:07.689Z,21.81
2019-02-28T10:52:35.732Z,21.91
2019-02-28T10:55:04.115Z,22.02
2019-02-28T10:57:32.229Z,22.02
2019-02-28T11:00:00.230Z,22.02
2019-02-28T11:02:28.680Z,22.06
2019-02-28T11:04:56.647Z,22.24
2019-02-28T11:07:25.063Z,22.51
2019-02-28T11:09:55.637Z,22.65
2019-02-28T11:12:24.267Z,22.72
2019-02-28T11:14:52.333Z,22.79
2019-02-28T11:17:20.322Z,22.87
2019-02-28T11:19:48.521Z,23.01
2019-02-28T11:22:18.420Z,23.24
2019-02-28T11:24:46.681Z,23.21
2019-02-28T11:27:16.156Z,23.40
2019-02-28T11:29:44.659Z,23.66
2019-02-28T11:32:12.659Z,23.85
2019-02-28T11:34:40.522Z,23.91
2019-02-28T11:37:09.079Z,23.90
2019-02-28T11:39:38.037Z,23.63
2019-02-28T11:42:06.537Z,23.76
2019-02-28T11:44:34.441Z,23.47
2019-02-28T11:47:02.236Z,23.58
2019-02-28T11:49:30.242Z,23.64
2019-02-28T11:51:58.275Z,23.41
2019-02-28T11:54:26.308Z,23.26
2019-02-28T11:56:54.237Z,23.19
2019-02-28T11:59:24.205Z,23.04
2019-02-28T12:01:52.155Z,23.04
2019-02-28T12:04:20.090Z,22.77
2019-02-28T12:06:48.183Z,22.99
2019-02-28T12:09:16.326Z,23.06
2019-02-28T12:11:46.102Z,23.07
2019-02-28T12:14:14.244Z,23.02
2019-02-28T12:16:42.292Z,22.95
2019-02-28T12:19:12.476Z,22.95
2019-02-28T12:21:40.305Z,22.47
2019-02-28T12:24:08.091Z,22.47
2019-02-28T12:26:36.133Z,22.78
2019-02-28T12:29:04.082Z,23.06
2019-02-28T12:31:35.556Z,23.32
2019-02-28T12:34:01.933Z,23.32
2019-02-28T12:36:30.035Z,23.48
2019-02-28T12:38:59.419Z,23.54
2019-02-28T12:41:28.015Z,23.74
2019-02-28T12:43:56.218Z,23.95
2019-02-28T12:46:24.372Z,24.03
2019-02-28T12:48:52.277Z,23.99
2019-02-28T12:51:21.281Z,24.11
2019-02-28T12:53:49.366Z,24.34
2019-02-28T12:56:17.458Z,24.64
2019-02-28T12:58:45.462Z,24.83
2019-02-28T13:01:13.865Z,25.21
2019-02-28T13:03:42.075Z,25.50
2019-02-28T13:06:10.122Z,25.59
2019-02-28T13:08:38.671Z,25.81
2019-02-28T13:11:08.346Z,26.04
2019-02-28T13:13:36.395Z,26.26
2019-02-28T13:16:04.504Z,26.47
2019-02-28T13:18:32.663Z,26.55
2019-02-28T13:21:00.605Z,26.64
2019-02-28T13:23:32.893Z,26.77
2019-02-28T13:26:00.035Z,26.98
2019-02-28T13:28:28.514Z,27.17
2019-02-28T13:30:56.762Z,27.31
2019-02-28T13:33:24.840Z,27.40
2019-02-28T13:35:52.993Z,27.59
2019-02-28T13:38:20.890Z,27.63
2019-02-28T13:40:49.087Z,27.73
2019-02-28T13:43:20.982Z,27.85
2019-02-28T13:45:50.653Z,27.96
2019-02-28T13:48:25.611Z,27.83
2019-02-28T13:50:46.592Z,27.90
2019-02-28T13:53:18.576Z,28.13
2019-02-28T13:55:44.434Z,28.18
2019-02-28T13:58:12.554Z,28.28
2019-02-28T14:00:45.590Z,28.22
2019-02-28T14:03:10.663Z,28.31
2019-02-28T14:05:40.972Z,28.45
2019-02-28T14:08:12.006Z,28.50
2019-02-28T14:10:40.479Z,28.24
2019-02-28T14:13:08.534Z,28.82
2019-02-28T14:15:39.327Z,28.99
2019-02-28T14:18:07.496Z,29.02
2019-02-28T14:20:38.262Z,29.26
2019-02-28T14:23:07.731Z,29.04
2019-02-28T14:25:36.384Z,29.16
2019-02-28T14:28:06.128Z,29.25
2019-02-28T14:30:34.063Z,29.21
2019-02-28T14:33:02.271Z,29.14
2019-02-28T14:35:34.123Z,28.63
2019-02-28T14:38:00.196Z,28.44
2019-02-28T14:40:28.383Z,28.15
2019-02-28T14:42:56.511Z,27.93
2019-02-28T14:45:24.779Z,27.78
2019-02-28T14:47:56.802Z,27.63
2019-02-28T14:50:22.619Z,27.48
2019-02-28T14:52:51.325Z,27.05
2019-02-28T14:55:19.695Z,26.65
2019-02-28T14:57:48.900Z,26.53
2019-02-28T15:00:23.965Z,26.32
2019-02-28T15:02:51.862Z,25.94
2019-02-28T15:05:20.630Z,25.57
2019-02-28T15:07:49.861Z,25.49
2019-02-28T15:10:18.241Z,25.24
2019-02-28T15:12:46.101Z,25.02
2019-02-28T15:15:17.963Z,24.91
2019-02-28T15:17:45.632Z,24.65
2019-02-28T15:20:13.927Z,24.54
2019-02-28T15:22:41.990Z,24.44
2019-02-28T15:25:11.122Z,24.43
2019-02-28T15:27:39.885Z,24.31
2019-02-28T15:30:11.059Z,24.19
2019-02-28T15:32:41.836Z,24.01
2019-02-28T15:35:12.440Z,23.85
2019-02-28T15:37:41.666Z,23.64
2019-02-28T15:40:11.818Z,23.41
2019-02-28T15:42:42.866Z,22.80
2019-02-28T15:45:09.927Z,22.75
2019-02-28T15:47:38.188Z,22.36
2019-02-28T15:50:07.052Z,22.36
2019-02-28T15:52:36.685Z,22.10
2019-02-28T15:55:05.334Z,21.96
2019-02-28T15:57:33.425Z,21.88
2019-02-28T16:00:01.424Z,21.64
2019-02-28T16:02:29.320Z,21.54
2019-02-28T16:05:05.181Z,21.34
2019-02-28T16:07:32.266Z,21.30
2019-02-28T16:09:58.446Z,21.20
2019-02-28T16:12:26.367Z,21.09
2019-02-28T16:14:54.306Z,21.00
2019-02-28T16:17:22.207Z,20.99
2019-02-28T16:19:53.222Z,20.86
2019-02-28T16:22:20.393Z,20.76
2019-02-28T16:24:49.717Z,20.57
2019-02-28T16:27:20.503Z,20.53
2019-02-28T16:29:48.388Z,20.46
2019-02-28T16:32:18.225Z,20.36
2019-02-28T16:34:48.100Z,20.31
2019-02-28T16:37:16.346Z,20.15
2019-02-28T16:39:44.254Z,20.03
2019-02-28T16:42:12.505Z,19.95
2019-02-28T16:44:40.625Z,19.88
2019-02-28T16:47:08.639Z,19.78
2019-02-28T16:49:36.648Z,19.72
2019-02-28T16:52:06.084Z,19.63
2019-02-28T16:54:34.588Z,19.51
2019-02-28T16:57:02.641Z,19.49
2019-02-28T16:59:31.701Z,19.44
2019-02-28T17:02:00.442Z,19.39
2019-02-28T17:04:28.359Z,19.27
2019-02-28T17:06:56.609Z,19.26
2019-02-28T17:09:35.636Z,19.20
2019-02-28T17:12:11.613Z,19.09
2019-02-28T17:14:39.547Z,19.00
2019-02-28T17:17:29.752Z,18.91
2019-02-28T17:19:57.834Z,18.88
2019-02-28T17:22:27.021Z,18.84
2019-02-28T17:24:55.595Z,18.74
2019-02-28T17:27:48.885Z,18.70
2019-02-28T17:30:32.995Z,18.70
2019-02-28T17:33:01.592Z,18.64
2019-02-28T17:35:30.663Z,18.54
2019-02-28T17:38:00.197Z,18.49
2019-02-28T17:40:29.297Z,18.49
2019-02-28T17:42:57.442Z,18.41
2019-02-28T17:45:28.803Z,18.45
2019-02-28T17:48:48.538Z,18.46
2019-02-28T17:51:42.467Z,18.43
2019-02-28T17:54:49.885Z,18.38
2019-02-28T17:58:11.589Z,18.36
2019-02-28T18:01:09.711Z,18.33
2019-02-28T18:04:16.974Z,18.27
2019-02-28T18:07:42.730Z,18.29
2019-02-28T18:10:55.750Z,18.22
2019-02-28T18:13:52.140Z,18.17
2019-02-28T18:16:44.889Z,18.16
2019-02-28T18:19:57.578Z,18.17
2019-02-28T18:22:54.051Z,18.15
2019-02-28T18:25:58.822Z,18.01
2019-02-28T18:29:09.715Z,18.01
2019-02-28T18:31:37.759Z,18.01
2019-02-28T18:34:11.199Z,17.97
2019-02-28T18:36:40.141Z,17.97
2019-02-28T18:39:11.683Z,18.03
2019-02-28T18:41:42.150Z,18.03
2019-02-28T18:44:09.966Z,17.96
2019-02-28T18:46:37.994Z,17.94
2019-02-28T18:49:06.064Z,17.91
2019-02-28T18:51:34.119Z,17.91
2019-02-28T18:54:02.433Z,17.93
2019-02-28T18:56:30.873Z,17.93
2019-02-28T18:58:58.797Z,17.88
2019-02-28T19:01:26.847Z,17.78
2019-02-28T19:03:56.558Z,17.84
2019-02-28T19:06:24.666Z,17.83
2019-02-28T19:08:55.762Z,17.71
2019-02-28T19:11:23.815Z,17.67
2019-02-28T19:13:51.893Z,17.72
2019-02-28T19:16:19.806Z,17.60
2019-02-28T19:18:47.909Z,17.66
2019-02-28T19:21:15.800Z,17.64
2019-02-28T19:23:43.944Z,17.59
2019-02-28T19:26:11.894Z,17.58
2019-02-28T19:28:39.820Z,17.59
2019-02-28T19:31:07.680Z,17.59
2019-02-28T19:33:35.730Z,17.48
2019-02-28T19:36:03.330Z,17.49
2019-02-28T19:38:31.009Z,17.31
2019-02-28T19:40:58.698Z,17.29
2019-02-28T19:43:26.408Z,17.23
2019-02-28T19:45:54.284Z,17.27
2019-02-28T19:48:24.999Z,17.19
2019-02-28T19:50:53.387Z,17.22
2019-02-28T19:53:20.933Z,17.14
2019-02-28T19:55:48.550Z,17.16
2019-02-28T19:58:16.186Z,17.07
2019-02-28T20:00:43.861Z,16.97
2019-02-28T20:03:11.476Z,17.05
2019-02-28T20:05:39.260Z,16.96
2019-02-28T20:08:07.000Z,16.95
2019-02-28T20:10:34.772Z,16.95
2019-02-28T20:13:03.684Z,16.91
2019-02-28T20:15:33.080Z,16.91
2019-02-28T20:18:00.901Z,16.83
2019-02-28T20:20:28.735Z,16.87
2019-02-28T20:22:56.589Z,16.92
2019-02-28T20:25:24.321Z,16.93
2019-02-28T20:27:52.107Z,16.93
2019-02-28T20:30:21.637Z,16.97
2019-02-28T20:32:49.492Z,16.92
2019-02-28T20:35:25.909Z,16.83
2019-02-28T20:37:46.950Z,16.78
2019-02-28T20:40:17.994Z,16.81
2019-02-28T20:42:45.523Z,16.77
2019-02-28T20:45:13.127Z,16.80
2019-02-28T20:47:40.784Z,16.77
2019-02-28T20:50:11.942Z,16.75
2019-02-28T20:52:39.579Z,16.78
2019-02-28T20:55:07.399Z,16.71
2019-02-28T20:57:35.258Z,16.75
2019-02-28T21:00:04.083Z,16.78
2019-02-28T21:02:32.072Z,16.82
2019-02-28T21:04:59.797Z,16.82
2019-02-28T21:07:27.502Z,16.66
2019-02-28T21:09:55.172Z,16.68
2019-02-28T21:12:22.926Z,16.67
2019-02-28T21:14:50.538Z,16.78
2019-02-28T21:17:18.148Z,16.64
2019-02-28T21:19:45.885Z,16.59
2019-02-28T21:22:13.473Z,16.44
2019-02-28T21:24:41.089Z,16.24
2019-02-28T21:27:11.325Z,16.10
2019-02-28T21:29:38.985Z,16.01
2019-02-28T21:32:06.690Z,15.97
2019-02-28T21:34:34.465Z,15.87
2019-02-28T21:37:03.318Z,15.48
2019-02-28T21:39:30.970Z,15.25
2019-02-28T21:41:58.579Z,14.95
2019-02-28T21:44:26.368Z,14.64
2019-02-28T21:46:54.058Z,14.64
2019-02-28T21:49:21.714Z,14.67
2019-02-28T21:51:49.362Z,14.71
2019-02-28T21:54:16.994Z,14.61
2019-02-28T21:56:45.795Z,14.61
2019-02-28T21:59:13.352Z,14.76
2019-02-28T22:01:40.991Z,14.81
2019-02-28T22:04:08.597Z,15.06
2019-02-28T22:06:36.196Z,15.09
2019-02-28T22:09:05.032Z,15.06
2019-02-28T22:11:37.128Z,15.09
2019-02-28T22:14:04.671Z,15.09
2019-02-28T22:16:33.254Z,15.15
2019-02-28T22:19:00.824Z,15.11
2019-02-28T22:21:28.435Z,15.31
2019-02-28T22:23:55.985Z,15.31
2019-02-28T22:26:23.508Z,15.33
2019-02-28T22:28:52.628Z,15.33
2019-02-28T22:31:47.947Z,15.43
2019-02-28T22:34:37.845Z,15.49
2019-02-28T22:37:05.426Z,15.47
2019-02-28T22:39:33.083Z,15.42
2019-02-28T22:42:00.668Z,15.48
2019-02-28T22:44:28.317Z,15.35
2019-02-28T22:46:55.863Z,15.40
2019-02-28T22:49:23.548Z,15.29
2019-02-28T22:51:51.079Z,15.22
2019-02-28T22:54:18.747Z,15.15
2019-02-28T22:56:46.299Z,15.07
2019-02-28T22:59:13.926Z,14.97
2019-02-28T23:01:41.651Z,14.91
2019-02-28T23:04:09.343Z,14.80
2019-02-28T23:06:36.921Z,14.91
2019-02-28T23:09:05.688Z,15.02
2019-02-28T23:11:34.550Z,14.99
2019-02-28T23:14:02.180Z,14.86
2019-02-28T23:16:29.750Z,14.75
2019-02-28T23:18:57.356Z,14.55
2019-02-28T23:21:24.949Z,14.40
2019-02-28T23:23:52.599Z,14.15
2019-02-28T23:26:25.043Z,14.06
2019-02-28T23:29:10.133Z,13.98
2019-02-28T23:32:18.107Z,13.64
2019-02-28T23:34:49.010Z,13.43
2019-02-28T23:37:16.636Z,13.17
2019-02-28T23:39:44.284Z,13.22
2019-02-28T23:42:11.869Z,13.24
2019-02-28T23:44:39.565Z,13.01
2019-02-28T23:47:07.176Z,12.87
2019-02-28T23:49:34.815Z,12.88
2019-02-28T23:52:02.398Z,12.89
2019-02-28T23:54:29.978Z,12.79
2019-02-28T23:56:57.520Z,12.62
2019-02-28T23:59:25.157Z,12.66
